sensor_id;sensor_type;location;lat;lon;timestamp;P1;durP1;ratioP1;P2;durP2;ratioP2
53269;SDS011;39159;45.634;9.420;2023-02-24T00:01:20;112.15;;;54.10;;
53269;SDS011;39159;45.634;9.420;2023-02-24T00:03:52;120.40;;;53.50;;
53269;SDS011;39159;45.634;9.420;2023-02-24T00:06:21;117.18;;;56.13;;
53269;SDS011;39159;45.634;9.420;2023-02-24T00:08:47;115.35;;;53.33;;
53269;SDS011;39159;45.634;9.420;2023-02-24T00:11:14;114.70;;;54.20;;
53269;SDS011;39159;45.634;9.420;2023-02-24T00:13:41;110.10;;;53.75;;
53269;SDS011;39159;45.634;9.420;2023-02-24T00:16:12;106.15;;;50.80;;
53269;SDS011;39159;45.634;9.420;2023-02-24T00:18:41;101.35;;;50.10;;
53269;SDS011;39159;45.634;9.420;2023-02-24T00:21:08;102.65;;;52.17;;
53269;SDS011;39159;45.634;9.420;2023-02-24T00:23:37;123.97;;;54.88;;
53269;SDS011;39159;45.634;9.420;2023-02-24T00:26:04;120.30;;;56.85;;
53269;SDS011;39159;45.634;9.420;2023-02-24T00:28:31;121.00;;;54.08;;
53269;SDS011;39159;45.634;9.420;2023-02-24T00:31:02;120.93;;;55.08;;
53269;SDS011;39159;45.634;9.420;2023-02-24T00:33:32;117.07;;;56.65;;
53269;SDS011;39159;45.634;9.420;2023-02-24T00:36:31;116.25;;;54.85;;
53269;SDS011;39159;45.634;9.420;2023-02-24T00:38:54;112.55;;;50.33;;
53269;SDS011;39159;45.634;9.420;2023-02-24T00:41:23;119.25;;;54.95;;
53269;SDS011;39159;45.634;9.420;2023-02-24T00:43:53;123.37;;;54.30;;
53269;SDS011;39159;45.634;9.420;2023-02-24T00:46:21;107.30;;;52.83;;
53269;SDS011;39159;45.634;9.420;2023-02-24T00:48:49;103.32;;;49.58;;
53269;SDS011;39159;45.634;9.420;2023-02-24T00:51:20;114.45;;;53.00;;
53269;SDS011;39159;45.634;9.420;2023-02-24T00:53:51;118.65;;;54.10;;
53269;SDS011;39159;45.634;9.420;2023-02-24T00:56:22;114.68;;;54.15;;
53269;SDS011;39159;45.634;9.420;2023-02-24T00:58:48;114.00;;;53.50;;
53269;SDS011;39159;45.634;9.420;2023-02-24T01:01:15;118.20;;;54.85;;
53269;SDS011;39159;45.634;9.420;2023-02-24T01:03:45;121.68;;;56.22;;
53269;SDS011;39159;45.634;9.420;2023-02-24T01:06:15;123.25;;;54.35;;
53269;SDS011;39159;45.634;9.420;2023-02-24T01:08:45;118.82;;;55.45;;
53269;SDS011;39159;45.634;9.420;2023-02-24T01:11:15;118.85;;;55.25;;
53269;SDS011;39159;45.634;9.420;2023-02-24T01:14:09;117.35;;;53.53;;
53269;SDS011;39159;45.634;9.420;2023-02-24T01:16:38;119.85;;;54.40;;
53269;SDS011;39159;45.634;9.420;2023-02-24T01:19:05;120.18;;;55.35;;
53269;SDS011;39159;45.634;9.420;2023-02-24T01:21:31;115.38;;;56.28;;
53269;SDS011;39159;45.634;9.420;2023-02-24T01:23:57;122.53;;;56.75;;
53269;SDS011;39159;45.634;9.420;2023-02-24T01:26:23;122.22;;;54.88;;
53269;SDS011;39159;45.634;9.420;2023-02-24T01:28:50;111.53;;;52.55;;
53269;SDS011;39159;45.634;9.420;2023-02-24T01:31:16;113.85;;;53.55;;
53269;SDS011;39159;45.634;9.420;2023-02-24T01:33:48;102.93;;;49.45;;
53269;SDS011;39159;45.634;9.420;2023-02-24T01:36:15;100.78;;;46.88;;
53269;SDS011;39159;45.634;9.420;2023-02-24T01:38:43;98.35;;;47.55;;
53269;SDS011;39159;45.634;9.420;2023-02-24T01:41:10;100.28;;;47.60;;
53269;SDS011;39159;45.634;9.420;2023-02-24T01:46:26;103.25;;;49.00;;
53269;SDS011;39159;45.634;9.420;2023-02-24T01:48:53;107.88;;;53.17;;
53269;SDS011;39159;45.634;9.420;2023-02-24T01:51:22;117.43;;;52.60;;
53269;SDS011;39159;45.634;9.420;2023-02-24T01:53:51;116.35;;;51.72;;
53269;SDS011;39159;45.634;9.420;2023-02-24T01:56:16;112.53;;;52.40;;
53269;SDS011;39159;45.634;9.420;2023-02-24T01:58:42;110.68;;;51.83;;
53269;SDS011;39159;45.634;9.420;2023-02-24T02:01:08;110.90;;;53.03;;
53269;SDS011;39159;45.634;9.420;2023-02-24T02:03:35;112.50;;;53.15;;
53269;SDS011;39159;45.634;9.420;2023-02-24T02:06:09;102.25;;;48.65;;
53269;SDS011;39159;45.634;9.420;2023-02-24T02:08:38;116.57;;;52.08;;
53269;SDS011;39159;45.634;9.420;2023-02-24T02:11:06;117.47;;;52.17;;
53269;SDS011;39159;45.634;9.420;2023-02-24T02:13:34;120.93;;;55.50;;
53269;SDS011;39159;45.634;9.420;2023-02-24T02:24:35;122.65;;;54.38;;
53269;SDS011;39159;45.634;9.420;2023-02-24T02:27:26;126.72;;;54.05;;
53269;SDS011;39159;45.634;9.420;2023-02-24T02:35:48;123.68;;;55.33;;
53269;SDS011;39159;45.634;9.420;2023-02-24T02:44:10;129.00;;;58.10;;
53269;SDS011;39159;45.634;9.420;2023-02-24T02:46:59;125.47;;;53.92;;
53269;SDS011;39159;45.634;9.420;2023-02-24T02:49:31;117.35;;;53.88;;
53269;SDS011;39159;45.634;9.420;2023-02-24T02:52:03;127.65;;;57.10;;
53269;SDS011;39159;45.634;9.420;2023-02-24T02:54:37;126.78;;;55.78;;
53269;SDS011;39159;45.634;9.420;2023-02-24T02:59:46;125.32;;;55.88;;
53269;SDS011;39159;45.634;9.420;2023-02-24T03:02:19;133.13;;;57.33;;
53269;SDS011;39159;45.634;9.420;2023-02-24T03:04:52;135.52;;;58.97;;
53269;SDS011;39159;45.634;9.420;2023-02-24T03:07:21;129.05;;;55.35;;
53269;SDS011;39159;45.634;9.420;2023-02-24T03:09:55;126.20;;;56.83;;
53269;SDS011;39159;45.634;9.420;2023-02-24T03:12:25;126.90;;;55.97;;
53269;SDS011;39159;45.634;9.420;2023-02-24T03:14:57;122.03;;;54.97;;
53269;SDS011;39159;45.634;9.420;2023-02-24T03:17:28;117.18;;;53.08;;
53269;SDS011;39159;45.634;9.420;2023-02-24T03:20:02;124.88;;;56.80;;
53269;SDS011;39159;45.634;9.420;2023-02-24T03:22:39;122.60;;;55.65;;
53269;SDS011;39159;45.634;9.420;2023-02-24T03:25:28;123.13;;;54.50;;
53269;SDS011;39159;45.634;9.420;2023-02-24T03:28:04;131.05;;;57.33;;
53269;SDS011;39159;45.634;9.420;2023-02-24T03:30:40;131.43;;;59.13;;
53269;SDS011;39159;45.634;9.420;2023-02-24T03:33:10;123.63;;;56.42;;
53269;SDS011;39159;45.634;9.420;2023-02-24T03:35:45;123.68;;;56.85;;
53269;SDS011;39159;45.634;9.420;2023-02-24T03:38:11;132.52;;;57.38;;
53269;SDS011;39159;45.634;9.420;2023-02-24T03:40:38;120.57;;;55.92;;
53269;SDS011;39159;45.634;9.420;2023-02-24T03:45:56;136.43;;;59.08;;
53269;SDS011;39159;45.634;9.420;2023-02-24T03:48:24;122.28;;;55.28;;
53269;SDS011;39159;45.634;9.420;2023-02-24T03:50:51;139.90;;;59.85;;
53269;SDS011;39159;45.634;9.420;2023-02-24T03:58:39;117.38;;;54.45;;
53269;SDS011;39159;45.634;9.420;2023-02-24T04:01:21;116.72;;;52.90;;
53269;SDS011;39159;45.634;9.420;2023-02-24T04:04:30;122.70;;;54.75;;
53269;SDS011;39159;45.634;9.420;2023-02-24T04:07:11;127.80;;;56.22;;
53269;SDS011;39159;45.634;9.420;2023-02-24T04:09:38;126.90;;;54.45;;
53269;SDS011;39159;45.634;9.420;2023-02-24T04:12:18;122.95;;;56.13;;
53269;SDS011;39159;45.634;9.420;2023-02-24T04:15:01;125.20;;;56.15;;
53269;SDS011;39159;45.634;9.420;2023-02-24T04:17:38;128.10;;;56.10;;
53269;SDS011;39159;45.634;9.420;2023-02-24T04:20:09;125.78;;;55.45;;
53269;SDS011;39159;45.634;9.420;2023-02-24T04:22:45;138.05;;;58.47;;
53269;SDS011;39159;45.634;9.420;2023-02-24T04:25:14;129.77;;;57.03;;
53269;SDS011;39159;45.634;9.420;2023-02-24T04:27:43;133.32;;;56.72;;
53269;SDS011;39159;45.634;9.420;2023-02-24T04:30:11;121.95;;;55.50;;
53269;SDS011;39159;45.634;9.420;2023-02-24T04:32:37;129.88;;;56.88;;
53269;SDS011;39159;45.634;9.420;2023-02-24T04:35:07;127.70;;;57.05;;
53269;SDS011;39159;45.634;9.420;2023-02-24T04:37:36;139.93;;;58.70;;
53269;SDS011;39159;45.634;9.420;2023-02-24T04:40:04;134.05;;;58.40;;
53269;SDS011;39159;45.634;9.420;2023-02-24T04:42:40;129.52;;;53.28;;
53269;SDS011;39159;45.634;9.420;2023-02-24T04:45:14;117.30;;;53.58;;
53269;SDS011;39159;45.634;9.420;2023-02-24T04:47:43;105.53;;;49.03;;
53269;SDS011;39159;45.634;9.420;2023-02-24T04:50:10;121.07;;;54.75;;
53269;SDS011;39159;45.634;9.420;2023-02-24T04:52:46;126.43;;;53.85;;
53269;SDS011;39159;45.634;9.420;2023-02-24T04:55:16;121.18;;;55.55;;
53269;SDS011;39159;45.634;9.420;2023-02-24T04:57:43;115.50;;;53.08;;
53269;SDS011;39159;45.634;9.420;2023-02-24T05:00:12;103.47;;;49.20;;
53269;SDS011;39159;45.634;9.420;2023-02-24T05:02:45;111.57;;;52.85;;
53269;SDS011;39159;45.634;9.420;2023-02-24T05:05:12;112.57;;;50.47;;
53269;SDS011;39159;45.634;9.420;2023-02-24T05:07:38;127.55;;;53.28;;
53269;SDS011;39159;45.634;9.420;2023-02-24T05:10:04;119.50;;;54.45;;
53269;SDS011;39159;45.634;9.420;2023-02-24T05:12:31;121.55;;;55.97;;
53269;SDS011;39159;45.634;9.420;2023-02-24T05:14:56;122.35;;;54.78;;
53269;SDS011;39159;45.634;9.420;2023-02-24T05:17:25;115.85;;;53.85;;
53269;SDS011;39159;45.634;9.420;2023-02-24T05:19:51;118.53;;;52.60;;
53269;SDS011;39159;45.634;9.420;2023-02-24T05:22:35;122.30;;;55.03;;
53269;SDS011;39159;45.634;9.420;2023-02-24T05:25:00;125.10;;;56.85;;
53269;SDS011;39159;45.634;9.420;2023-02-24T05:27:27;120.63;;;53.28;;
53269;SDS011;39159;45.634;9.420;2023-02-24T05:29:52;116.43;;;54.22;;
53269;SDS011;39159;45.634;9.420;2023-02-24T05:32:19;120.15;;;53.10;;
53269;SDS011;39159;45.634;9.420;2023-02-24T05:34:46;112.95;;;52.72;;
53269;SDS011;39159;45.634;9.420;2023-02-24T05:37:11;117.18;;;55.28;;
53269;SDS011;39159;45.634;9.420;2023-02-24T05:39:40;136.32;;;58.90;;
53269;SDS011;39159;45.634;9.420;2023-02-24T05:42:06;125.60;;;55.78;;
53269;SDS011;39159;45.634;9.420;2023-02-24T05:44:32;123.60;;;55.75;;
53269;SDS011;39159;45.634;9.420;2023-02-24T05:46:59;115.45;;;53.40;;
53269;SDS011;39159;45.634;9.420;2023-02-24T05:49:26;119.00;;;54.05;;
53269;SDS011;39159;45.634;9.420;2023-02-24T05:51:57;122.18;;;54.92;;
53269;SDS011;39159;45.634;9.420;2023-02-24T05:56:53;117.88;;;55.38;;
53269;SDS011;39159;45.634;9.420;2023-02-24T05:59:22;121.13;;;55.40;;
53269;SDS011;39159;45.634;9.420;2023-02-24T06:01:48;113.25;;;51.90;;
53269;SDS011;39159;45.634;9.420;2023-02-24T06:04:17;129.18;;;57.80;;
53269;SDS011;39159;45.634;9.420;2023-02-24T06:07:03;133.23;;;57.20;;
53269;SDS011;39159;45.634;9.420;2023-02-24T06:09:37;129.38;;;56.67;;
53269;SDS011;39159;45.634;9.420;2023-02-24T06:12:06;127.75;;;55.33;;
53269;SDS011;39159;45.634;9.420;2023-02-24T06:14:33;114.40;;;54.55;;
53269;SDS011;39159;45.634;9.420;2023-02-24T06:16:58;108.53;;;52.28;;
53269;SDS011;39159;45.634;9.420;2023-02-24T06:19:26;118.50;;;55.28;;
53269;SDS011;39159;45.634;9.420;2023-02-24T06:21:56;110.70;;;51.95;;
53269;SDS011;39159;45.634;9.420;2023-02-24T06:24:25;117.82;;;54.63;;
53269;SDS011;39159;45.634;9.420;2023-02-24T06:26:52;114.18;;;53.55;;
53269;SDS011;39159;45.634;9.420;2023-02-24T06:31:53;128.13;;;55.22;;
53269;SDS011;39159;45.634;9.420;2023-02-24T06:34:19;134.80;;;59.20;;
53269;SDS011;39159;45.634;9.420;2023-02-24T06:36:45;136.73;;;57.40;;
53269;SDS011;39159;45.634;9.420;2023-02-24T06:39:12;133.15;;;57.42;;
53269;SDS011;39159;45.634;9.420;2023-02-24T06:41:38;123.32;;;55.05;;
53269;SDS011;39159;45.634;9.420;2023-02-24T06:44:04;119.32;;;57.13;;
53269;SDS011;39159;45.634;9.420;2023-02-24T06:46:30;142.50;;;62.47;;
53269;SDS011;39159;45.634;9.420;2023-02-24T06:48:56;125.93;;;57.22;;
53269;SDS011;39159;45.634;9.420;2023-02-24T06:51:22;134.98;;;60.13;;
53269;SDS011;39159;45.634;9.420;2023-02-24T06:53:49;138.30;;;60.22;;
53269;SDS011;39159;45.634;9.420;2023-02-24T06:56:16;137.80;;;61.22;;
53269;SDS011;39159;45.634;9.420;2023-02-24T06:58:44;140.82;;;63.05;;
53269;SDS011;39159;45.634;9.420;2023-02-24T07:01:18;139.13;;;60.20;;
53269;SDS011;39159;45.634;9.420;2023-02-24T07:03:49;130.55;;;59.55;;
53269;SDS011;39159;45.634;9.420;2023-02-24T07:06:32;131.75;;;59.08;;
53269;SDS011;39159;45.634;9.420;2023-02-24T07:09:03;133.15;;;61.22;;
53269;SDS011;39159;45.634;9.420;2023-02-24T07:11:31;130.32;;;60.72;;
53269;SDS011;39159;45.634;9.420;2023-02-24T07:13:58;129.00;;;59.47;;
53269;SDS011;39159;45.634;9.420;2023-02-24T07:16:24;128.02;;;58.97;;
53269;SDS011;39159;45.634;9.420;2023-02-24T07:18:56;116.63;;;56.47;;
53269;SDS011;39159;45.634;9.420;2023-02-24T07:21:24;132.48;;;57.42;;
53269;SDS011;39159;45.634;9.420;2023-02-24T07:23:52;126.45;;;57.58;;
53269;SDS011;39159;45.634;9.420;2023-02-24T07:26:25;128.05;;;60.97;;
53269;SDS011;39159;45.634;9.420;2023-02-24T07:28:52;136.68;;;62.03;;
53269;SDS011;39159;45.634;9.420;2023-02-24T07:31:19;135.55;;;61.22;;
53269;SDS011;39159;45.634;9.420;2023-02-24T07:33:48;126.00;;;58.63;;
53269;SDS011;39159;45.634;9.420;2023-02-24T07:36:17;137.30;;;61.17;;
53269;SDS011;39159;45.634;9.420;2023-02-24T07:38:47;132.98;;;60.83;;
53269;SDS011;39159;45.634;9.420;2023-02-24T07:41:16;152.15;;;70.30;;
53269;SDS011;39159;45.634;9.420;2023-02-24T07:43:43;145.95;;;66.95;;
53269;SDS011;39159;45.634;9.420;2023-02-24T07:46:14;143.32;;;66.47;;
53269;SDS011;39159;45.634;9.420;2023-02-24T07:48:43;150.20;;;67.13;;
53269;SDS011;39159;45.634;9.420;2023-02-24T07:51:09;144.32;;;64.93;;
53269;SDS011;39159;45.634;9.420;2023-02-24T07:53:36;135.63;;;62.88;;
53269;SDS011;39159;45.634;9.420;2023-02-24T07:56:13;139.93;;;64.47;;
53269;SDS011;39159;45.634;9.420;2023-02-24T07:58:45;150.73;;;65.80;;
53269;SDS011;39159;45.634;9.420;2023-02-24T08:01:16;148.38;;;66.68;;
53269;SDS011;39159;45.634;9.420;2023-02-24T08:03:57;144.32;;;64.32;;
53269;SDS011;39159;45.634;9.420;2023-02-24T08:06:31;143.50;;;67.80;;
53269;SDS011;39159;45.634;9.420;2023-02-24T08:09:08;144.02;;;66.40;;
53269;SDS011;39159;45.634;9.420;2023-02-24T08:11:49;142.23;;;67.18;;
53269;SDS011;39159;45.634;9.420;2023-02-24T08:14:26;157.82;;;67.65;;
53269;SDS011;39159;45.634;9.420;2023-02-24T08:16:59;156.45;;;68.80;;
53269;SDS011;39159;45.634;9.420;2023-02-24T08:19:30;148.18;;;68.97;;
53269;SDS011;39159;45.634;9.420;2023-02-24T08:21:57;154.85;;;69.07;;
53269;SDS011;39159;45.634;9.420;2023-02-24T08:24:43;158.27;;;70.43;;
53269;SDS011;39159;45.634;9.420;2023-02-24T08:27:20;158.40;;;72.43;;
53269;SDS011;39159;45.634;9.420;2023-02-24T08:29:49;160.27;;;74.35;;
53269;SDS011;39159;45.634;9.420;2023-02-24T08:32:22;157.48;;;74.18;;
53269;SDS011;39159;45.634;9.420;2023-02-24T08:37:42;162.05;;;74.35;;
53269;SDS011;39159;45.634;9.420;2023-02-24T08:40:12;162.93;;;73.75;;
53269;SDS011;39159;45.634;9.420;2023-02-24T08:43:08;157.25;;;71.40;;
53269;SDS011;39159;45.634;9.420;2023-02-24T08:48:31;164.48;;;72.60;;
53269;SDS011;39159;45.634;9.420;2023-02-24T08:53:36;177.05;;;73.88;;
53269;SDS011;39159;45.634;9.420;2023-02-24T08:56:05;157.13;;;71.50;;
53269;SDS011;39159;45.634;9.420;2023-02-24T08:58:42;151.52;;;68.68;;
53269;SDS011;39159;45.634;9.420;2023-02-24T09:01:16;153.85;;;69.03;;
53269;SDS011;39159;45.634;9.420;2023-02-24T09:03:47;146.18;;;67.22;;
53269;SDS011;39159;45.634;9.420;2023-02-24T09:06:17;157.02;;;67.80;;
53269;SDS011;39159;45.634;9.420;2023-02-24T09:08:49;134.90;;;65.65;;
53269;SDS011;39159;45.634;9.420;2023-02-24T09:11:37;147.73;;;64.68;;
53269;SDS011;39159;45.634;9.420;2023-02-24T09:14:12;144.30;;;65.88;;
53269;SDS011;39159;45.634;9.420;2023-02-24T09:16:45;145.73;;;64.00;;
53269;SDS011;39159;45.634;9.420;2023-02-24T09:22:04;143.63;;;65.55;;
53269;SDS011;39159;45.634;9.420;2023-02-24T09:24:52;151.30;;;65.93;;
53269;SDS011;39159;45.634;9.420;2023-02-24T09:27:37;143.30;;;64.97;;
53269;SDS011;39159;45.634;9.420;2023-02-24T09:30:06;146.73;;;67.50;;
53269;SDS011;39159;45.634;9.420;2023-02-24T09:32:56;144.13;;;66.07;;
53269;SDS011;39159;45.634;9.420;2023-02-24T09:35:27;133.00;;;63.58;;
53269;SDS011;39159;45.634;9.420;2023-02-24T09:38:00;151.90;;;68.05;;
53269;SDS011;39159;45.634;9.420;2023-02-24T09:40:34;131.23;;;63.20;;
53269;SDS011;39159;45.634;9.420;2023-02-24T09:43:13;137.85;;;64.72;;
53269;SDS011;39159;45.634;9.420;2023-02-24T09:45:55;142.20;;;65.47;;
53269;SDS011;39159;45.634;9.420;2023-02-24T09:48:34;140.43;;;63.67;;
53269;SDS011;39159;45.634;9.420;2023-02-24T09:51:18;126.97;;;60.70;;
53269;SDS011;39159;45.634;9.420;2023-02-24T09:53:53;132.88;;;61.83;;
53269;SDS011;39159;45.634;9.420;2023-02-24T09:56:28;127.88;;;60.75;;
53269;SDS011;39159;45.634;9.420;2023-02-24T10:07:42;122.68;;;57.72;;
53269;SDS011;39159;45.634;9.420;2023-02-24T10:12:43;121.00;;;58.55;;
53269;SDS011;39159;45.634;9.420;2023-02-24T10:15:18;126.28;;;61.00;;
53269;SDS011;39159;45.634;9.420;2023-02-24T10:18:26;127.80;;;58.95;;
53269;SDS011;39159;45.634;9.420;2023-02-24T10:23:50;124.20;;;60.00;;
53269;SDS011;39159;45.634;9.420;2023-02-24T10:26:32;113.88;;;57.83;;
53269;SDS011;39159;45.634;9.420;2023-02-24T10:29:28;112.88;;;54.28;;
53269;SDS011;39159;45.634;9.420;2023-02-24T10:32:20;110.20;;;57.70;;
53269;SDS011;39159;45.634;9.420;2023-02-24T10:34:58;113.13;;;56.83;;
53269;SDS011;39159;45.634;9.420;2023-02-24T10:37:24;112.15;;;55.40;;
53269;SDS011;39159;45.634;9.420;2023-02-24T10:39:59;105.85;;;52.45;;
53269;SDS011;39159;45.634;9.420;2023-02-24T10:42:33;108.05;;;54.78;;
53269;SDS011;39159;45.634;9.420;2023-02-24T10:45:44;103.55;;;52.45;;
53269;SDS011;39159;45.634;9.420;2023-02-24T10:47:51;103.07;;;53.80;;
53269;SDS011;39159;45.634;9.420;2023-02-24T10:50:38;108.05;;;53.33;;
53269;SDS011;39159;45.634;9.420;2023-02-24T10:53:13;97.47;;;49.85;;
53269;SDS011;39159;45.634;9.420;2023-02-24T10:55:50;93.78;;;47.08;;
53269;SDS011;39159;45.634;9.420;2023-02-24T11:01:12;96.47;;;47.45;;
53269;SDS011;39159;45.634;9.420;2023-02-24T11:03:59;94.57;;;47.03;;
53269;SDS011;39159;45.634;9.420;2023-02-24T11:06:37;88.15;;;45.20;;
53269;SDS011;39159;45.634;9.420;2023-02-24T11:09:17;88.57;;;46.10;;
53269;SDS011;39159;45.634;9.420;2023-02-24T11:11:51;85.47;;;44.67;;
53269;SDS011;39159;45.634;9.420;2023-02-24T11:14:46;84.32;;;43.58;;
53269;SDS011;39159;45.634;9.420;2023-02-24T11:17:34;96.32;;;44.88;;
53269;SDS011;39159;45.634;9.420;2023-02-24T11:22:56;83.07;;;43.25;;
53269;SDS011;39159;45.634;9.420;2023-02-24T11:25:26;81.32;;;41.40;;
53269;SDS011;39159;45.634;9.420;2023-02-24T11:30:53;69.22;;;35.85;;
53269;SDS011;39159;45.634;9.420;2023-02-24T11:33:35;64.78;;;36.25;;
53269;SDS011;39159;45.634;9.420;2023-02-24T11:36:26;85.32;;;41.17;;
53269;SDS011;39159;45.634;9.420;2023-02-24T11:41:47;69.93;;;38.03;;
53269;SDS011;39159;45.634;9.420;2023-02-24T11:44:19;78.90;;;40.83;;
53269;SDS011;39159;45.634;9.420;2023-02-24T11:46:56;77.15;;;41.33;;
53269;SDS011;39159;45.634;9.420;2023-02-24T11:49:30;81.88;;;40.30;;
53269;SDS011;39159;45.634;9.420;2023-02-24T11:52:10;87.07;;;43.73;;
53269;SDS011;39159;45.634;9.420;2023-02-24T11:54:42;82.68;;;44.47;;
53269;SDS011;39159;45.634;9.420;2023-02-24T11:57:15;78.80;;;40.88;;
53269;SDS011;39159;45.634;9.420;2023-02-24T11:59:45;80.85;;;42.17;;
53269;SDS011;39159;45.634;9.420;2023-02-24T12:04:55;57.13;;;29.33;;
53269;SDS011;39159;45.634;9.420;2023-02-24T12:07:29;53.10;;;27.65;;
53269;SDS011;39159;45.634;9.420;2023-02-24T12:12:29;63.35;;;34.38;;
53269;SDS011;39159;45.634;9.420;2023-02-24T12:15:18;64.53;;;35.95;;
53269;SDS011;39159;45.634;9.420;2023-02-24T12:23:16;57.53;;;31.23;;
53269;SDS011;39159;45.634;9.420;2023-02-24T12:25:58;59.40;;;32.90;;
53269;SDS011;39159;45.634;9.420;2023-02-24T12:47:24;39.22;;;23.02;;
53269;SDS011;39159;45.634;9.420;2023-02-24T12:50:05;41.80;;;23.13;;
53269;SDS011;39159;45.634;9.420;2023-02-24T12:52:55;55.88;;;29.23;;
53269;SDS011;39159;45.634;9.420;2023-02-24T12:58:40;59.13;;;31.98;;
53269;SDS011;39159;45.634;9.420;2023-02-24T13:11:28;54.20;;;28.60;;
53269;SDS011;39159;45.634;9.420;2023-02-24T13:16:36;58.15;;;30.42;;
53269;SDS011;39159;45.634;9.420;2023-02-24T13:19:18;58.35;;;31.80;;
53269;SDS011;39159;45.634;9.420;2023-02-24T13:22:44;62.83;;;32.10;;
53269;SDS011;39159;45.634;9.420;2023-02-24T13:24:43;71.88;;;35.15;;
53269;SDS011;39159;45.634;9.420;2023-02-24T13:27:22;64.03;;;34.78;;
53269;SDS011;39159;45.634;9.420;2023-02-24T13:32:39;64.22;;;34.75;;
53269;SDS011;39159;45.634;9.420;2023-02-24T13:37:41;64.17;;;33.53;;
53269;SDS011;39159;45.634;9.420;2023-02-24T13:42:54;58.78;;;30.25;;
53269;SDS011;39159;45.634;9.420;2023-02-24T13:45:19;54.45;;;30.67;;
53269;SDS011;39159;45.634;9.420;2023-02-24T14:04:33;57.40;;;29.95;;
53269;SDS011;39159;45.634;9.420;2023-02-24T14:07:00;61.22;;;34.47;;
53269;SDS011;39159;45.634;9.420;2023-02-24T14:09:38;60.97;;;32.38;;
53269;SDS011;39159;45.634;9.420;2023-02-24T14:12:19;54.30;;;30.83;;
53269;SDS011;39159;45.634;9.420;2023-02-24T14:14:48;56.78;;;31.13;;
53269;SDS011;39159;45.634;9.420;2023-02-24T14:17:34;55.97;;;30.83;;
53269;SDS011;39159;45.634;9.420;2023-02-24T14:20:09;55.60;;;31.13;;
53269;SDS011;39159;45.634;9.420;2023-02-24T14:22:42;61.80;;;32.88;;
53269;SDS011;39159;45.634;9.420;2023-02-24T14:25:10;65.95;;;35.15;;
53269;SDS011;39159;45.634;9.420;2023-02-24T14:27:37;66.53;;;34.38;;
53269;SDS011;39159;45.634;9.420;2023-02-24T14:30:03;68.47;;;33.75;;
53269;SDS011;39159;45.634;9.420;2023-02-24T14:32:31;63.25;;;33.38;;
53269;SDS011;39159;45.634;9.420;2023-02-24T14:34:57;65.20;;;33.35;;
53269;SDS011;39159;45.634;9.420;2023-02-24T14:37:24;62.45;;;34.03;;
53269;SDS011;39159;45.634;9.420;2023-02-24T14:39:53;58.20;;;31.77;;
53269;SDS011;39159;45.634;9.420;2023-02-24T14:42:20;62.95;;;34.10;;
53269;SDS011;39159;45.634;9.420;2023-02-24T14:47:14;59.53;;;31.30;;
53269;SDS011;39159;45.634;9.420;2023-02-24T14:49:41;57.22;;;32.75;;
53269;SDS011;39159;45.634;9.420;2023-02-24T14:57:23;58.38;;;33.13;;
53269;SDS011;39159;45.634;9.420;2023-02-24T14:59:53;61.90;;;32.40;;
53269;SDS011;39159;45.634;9.420;2023-02-24T15:02:35;55.67;;;30.35;;
53269;SDS011;39159;45.634;9.420;2023-02-24T15:05:06;62.35;;;33.33;;
53269;SDS011;39159;45.634;9.420;2023-02-24T15:07:33;57.05;;;31.85;;
53269;SDS011;39159;45.634;9.420;2023-02-24T15:09:59;56.58;;;29.65;;
53269;SDS011;39159;45.634;9.420;2023-02-24T15:12:31;44.13;;;24.27;;
53269;SDS011;39159;45.634;9.420;2023-02-24T15:18:00;44.55;;;24.50;;
53269;SDS011;39159;45.634;9.420;2023-02-24T15:20:32;42.05;;;23.45;;
53269;SDS011;39159;45.634;9.420;2023-02-24T15:25:30;63.10;;;33.17;;
53269;SDS011;39159;45.634;9.420;2023-02-24T15:28:19;56.78;;;30.73;;
53269;SDS011;39159;45.634;9.420;2023-02-24T15:30:58;56.05;;;31.38;;
53269;SDS011;39159;45.634;9.420;2023-02-24T15:34:15;50.25;;;27.95;;
53269;SDS011;39159;45.634;9.420;2023-02-24T15:36:30;51.60;;;27.17;;
53269;SDS011;39159;45.634;9.420;2023-02-24T15:39:07;54.38;;;26.75;;
53269;SDS011;39159;45.634;9.420;2023-02-24T15:41:43;45.50;;;26.35;;
53269;SDS011;39159;45.634;9.420;2023-02-24T15:47:25;38.95;;;21.02;;
53269;SDS011;39159;45.634;9.420;2023-02-24T15:49:51;43.03;;;20.92;;
53269;SDS011;39159;45.634;9.420;2023-02-24T15:52:19;46.50;;;23.95;;
53269;SDS011;39159;45.634;9.420;2023-02-24T15:54:51;42.17;;;23.45;;
53269;SDS011;39159;45.634;9.420;2023-02-24T15:57:17;39.35;;;21.80;;
53269;SDS011;39159;45.634;9.420;2023-02-24T15:59:44;41.47;;;21.38;;
53269;SDS011;39159;45.634;9.420;2023-02-24T16:02:14;38.53;;;19.58;;
53269;SDS011;39159;45.634;9.420;2023-02-24T16:04:42;33.13;;;18.55;;
53269;SDS011;39159;45.634;9.420;2023-02-24T16:07:09;34.50;;;19.40;;
53269;SDS011;39159;45.634;9.420;2023-02-24T16:12:09;41.60;;;20.83;;
53269;SDS011;39159;45.634;9.420;2023-02-24T16:14:37;34.38;;;21.17;;
53269;SDS011;39159;45.634;9.420;2023-02-24T16:17:06;42.33;;;21.00;;
53269;SDS011;39159;45.634;9.420;2023-02-24T16:19:40;35.60;;;20.63;;
53269;SDS011;39159;45.634;9.420;2023-02-24T16:22:08;31.13;;;20.05;;
53269;SDS011;39159;45.634;9.420;2023-02-24T16:24:34;38.35;;;20.40;;
53269;SDS011;39159;45.634;9.420;2023-02-24T16:26:59;34.28;;;20.35;;
53269;SDS011;39159;45.634;9.420;2023-02-24T16:29:25;39.20;;;20.85;;
53269;SDS011;39159;45.634;9.420;2023-02-24T16:31:50;38.53;;;22.77;;
53269;SDS011;39159;45.634;9.420;2023-02-24T16:34:16;37.10;;;22.48;;
53269;SDS011;39159;45.634;9.420;2023-02-24T16:36:41;37.95;;;22.23;;
53269;SDS011;39159;45.634;9.420;2023-02-24T16:39:08;37.22;;;21.42;;
53269;SDS011;39159;45.634;9.420;2023-02-24T16:41:36;35.17;;;20.55;;
53269;SDS011;39159;45.634;9.420;2023-02-24T16:44:01;39.60;;;22.83;;
53269;SDS011;39159;45.634;9.420;2023-02-24T16:46:27;40.65;;;23.98;;
53269;SDS011;39159;45.634;9.420;2023-02-24T16:48:59;49.00;;;24.98;;
53269;SDS011;39159;45.634;9.420;2023-02-24T16:51:24;33.60;;;21.38;;
53269;SDS011;39159;45.634;9.420;2023-02-24T16:53:50;39.22;;;22.98;;
53269;SDS011;39159;45.634;9.420;2023-02-24T16:56:15;35.05;;;21.75;;
53269;SDS011;39159;45.634;9.420;2023-02-24T16:58:42;40.67;;;23.20;;
53269;SDS011;39159;45.634;9.420;2023-02-24T17:01:09;51.00;;;27.13;;
53269;SDS011;39159;45.634;9.420;2023-02-24T17:03:45;46.92;;;25.95;;
53269;SDS011;39159;45.634;9.420;2023-02-24T17:06:12;46.10;;;26.48;;
53269;SDS011;39159;45.634;9.420;2023-02-24T17:08:38;42.05;;;24.55;;
53269;SDS011;39159;45.634;9.420;2023-02-24T17:11:05;46.38;;;26.48;;
53269;SDS011;39159;45.634;9.420;2023-02-24T17:13:38;43.35;;;25.25;;
53269;SDS011;39159;45.634;9.420;2023-02-24T17:16:03;40.40;;;23.33;;
53269;SDS011;39159;45.634;9.420;2023-02-24T17:18:29;43.85;;;25.02;;
53269;SDS011;39159;45.634;9.420;2023-02-24T17:20:54;47.53;;;27.33;;
53269;SDS011;39159;45.634;9.420;2023-02-24T17:23:20;46.63;;;24.80;;
53269;SDS011;39159;45.634;9.420;2023-02-24T17:25:46;53.05;;;30.30;;